createdAt,value
2022-10-05T00:01:31.063Z,101100.88
2022-10-05T00:04:11.744Z,101100.02
2022-10-05T00:06:40.244Z,101099.16
2022-10-05T00:09:15.224Z,101100.05
2022-10-05T00:11:44.835Z,101092.24
2022-10-05T00:14:18.343Z,101103.53
2022-10-05T00:16:48.043Z,101097.48
2022-10-05T00:19:21.409Z,101102.70
2022-10-05T00:21:50.332Z,101093.19
2022-10-05T00:24:20.414Z,101094.91
2022-10-05T00:26:52.838Z,101094.91
2022-10-05T00:29:26.184Z,101085.35
2022-10-05T00:31:56.394Z,101075.84
2022-10-05T00:34:27.210Z,101078.38
2022-10-05T00:36:58.663Z,101079.23
2022-10-05T00:39:29.580Z,101082.72
2022-10-05T00:42:21.736Z,101074.89
2022-10-05T00:44:57.554Z,101078.36
2022-10-05T00:47:37.105Z,101088.73
2022-10-05T00:50:31.723Z,101089.59
2022-10-05T00:53:11.519Z,101093.05
2022-10-05T00:55:55.358Z,101090.45
2022-10-05T00:58:38.154Z,101093.05
2022-10-05T01:01:11.259Z,101091.33
2022-10-05T01:03:54.239Z,101101.77
2022-10-05T01:06:31.424Z,101084.41
2022-10-05T01:09:09.344Z,101079.23
2022-10-05T01:11:46.224Z,101080.13
2022-10-05T01:14:21.199Z,101086.18
2022-10-05T01:16:55.936Z,101089.67
2022-10-05T01:19:50.846Z,101090.56
2022-10-05T01:22:36.297Z,101095.79
2022-10-05T01:25:21.077Z,101098.39
2022-10-05T01:27:59.133Z,101098.39
2022-10-05T01:30:36.819Z,101094.08
2022-10-05T01:33:16.607Z,101094.08
2022-10-05T01:35:57.691Z,101092.36
2022-10-05T01:38:35.911Z,101084.55
2022-10-05T01:41:20.104Z,101088.86
2022-10-05T01:43:54.576Z,101082.80
2022-10-05T01:46:31.145Z,101076.74
2022-10-05T01:49:15.679Z,101074.14
2022-10-05T01:51:48.473Z,101090.61
2022-10-05T01:54:30.797Z,101099.27
2022-10-05T01:57:10.333Z,101106.22
2022-10-05T01:59:56.123Z,101100.16
2022-10-05T02:02:29.009Z,101101.87
2022-10-05T02:05:03.803Z,101105.36
2022-10-05T02:07:37.545Z,101101.02
2022-10-05T02:10:14.502Z,101096.67
2022-10-05T02:12:45.521Z,101091.44
2022-10-05T02:15:19.730Z,101080.18
2022-10-05T02:17:51.042Z,101080.98
2022-10-05T02:20:25.671Z,101080.13
2022-10-05T02:22:57.711Z,101074.03
2022-10-05T02:25:30.826Z,101063.63
2022-10-05T02:28:05.986Z,101050.59
2022-10-05T02:30:41.348Z,101042.77
2022-10-05T02:33:18.797Z,101037.56
2022-10-05T02:35:47.303Z,101040.14
2022-10-05T02:38:28.213Z,101046.20
2022-10-05T02:41:06.396Z,101044.46
2022-10-05T02:43:46.140Z,101063.52
2022-10-05T02:46:25.626Z,101046.14
2022-10-05T02:49:11.104Z,101039.20
2022-10-05T02:51:48.819Z,101047.86
2022-10-05T02:54:28.575Z,101058.27
2022-10-05T02:57:04.223Z,101068.64
2022-10-05T02:59:38.572Z,101057.38
2022-10-05T03:02:15.397Z,101048.70
2022-10-05T03:04:52.032Z,101057.35
2022-10-05T03:07:27.641Z,101074.70
2022-10-05T03:10:05.248Z,101070.35
2022-10-05T03:12:49.051Z,101083.32
2022-10-05T03:15:35.459Z,101065.98
2022-10-05T03:18:16.057Z,101064.23
2022-10-05T03:20:54.603Z,101071.18
2022-10-05T03:23:35.572Z,101069.47
2022-10-05T03:26:19.083Z,101079.87
2022-10-05T03:28:55.963Z,101082.47
2022-10-05T03:31:35.147Z,101084.21
2022-10-05T03:34:11.233Z,101085.06
2022-10-05T03:36:49.268Z,101083.32
2022-10-05T03:39:27.292Z,101085.92
2022-10-05T03:42:07.692Z,101075.52
2022-10-05T03:44:46.083Z,101067.72
2022-10-05T03:47:24.971Z,101056.47
2022-10-05T03:50:21.453Z,101050.37
2022-10-05T03:52:56.132Z,101052.12
2022-10-05T03:55:31.252Z,101053.83
2022-10-05T03:58:07.454Z,101059.03
2022-10-05T04:00:40.133Z,101058.17
2022-10-05T04:03:15.834Z,101053.83
2022-10-05T04:05:50.583Z,101049.52
2022-10-05T04:08:25.889Z,101047.78
2022-10-05T04:11:04.826Z,101046.03
2022-10-05T04:13:39.970Z,101038.20
2022-10-05T04:16:19.769Z,101041.66
2022-10-05T04:18:56.817Z,101040.80
2022-10-05T04:21:30.246Z,101048.60
2022-10-05T04:24:04.469Z,101050.34
2022-10-05T04:26:41.273Z,101047.75
2022-10-05T04:29:19.259Z,101051.20
2022-10-05T04:32:05.190Z,101057.26
2022-10-05T04:35:02.556Z,101058.15
2022-10-05T04:37:46.450Z,101059.00
2022-10-05T04:40:34.006Z,101060.75
2022-10-05T04:43:13.756Z,101061.60
2022-10-05T04:45:58.136Z,101067.66
2022-10-05T04:48:38.262Z,101069.41
2022-10-05T04:51:20.634Z,101071.11
2022-10-05T04:53:59.263Z,101058.12
2022-10-05T04:56:35.251Z,101070.23
2022-10-05T04:59:35.332Z,101067.63
2022-10-05T05:02:13.532Z,101065.03
2022-10-05T05:04:56.292Z,101069.37
2022-10-05T05:07:37.873Z,101081.52
2022-10-05T05:10:40.771Z,101084.14
2022-10-05T05:13:23.685Z,101085.03
2022-10-05T05:15:58.738Z,101080.72
2022-10-05T05:18:46.194Z,101093.72
2022-10-05T05:21:30.573Z,101092.01
2022-10-05T05:24:09.728Z,101080.78
2022-10-05T05:26:55.552Z,101084.27
2022-10-05T05:29:38.517Z,101082.56
2022-10-05T05:32:14.054Z,101086.94
2022-10-05T05:35:00.193Z,101082.62
2022-10-05T05:37:35.452Z,101082.64
2022-10-05T05:40:19.963Z,101086.12
2022-10-05T05:42:58.103Z,101082.70
2022-10-05T05:45:40.436Z,101071.43
2022-10-05T05:48:18.077Z,101065.36
2022-10-05T05:50:56.165Z,101072.38
2022-10-05T05:53:31.951Z,101081.95
2022-10-05T05:56:09.446Z,101081.97
2022-10-05T05:58:47.413Z,101081.98
2022-10-05T06:01:33.359Z,101083.77
2022-10-05T06:04:14.600Z,101081.21
2022-10-05T06:06:48.794Z,101086.42
2022-10-05T06:09:26.021Z,101079.53
2022-10-05T06:12:15.807Z,101077.82
2022-10-05T06:14:50.434Z,101070.89
2022-10-05T06:17:24.806Z,101079.62
2022-10-05T06:20:02.436Z,101077.03
2022-10-05T06:22:41.687Z,101083.12
2022-10-05T06:25:24.368Z,101069.23
2022-10-05T06:28:09.832Z,101061.44
2022-10-05T06:30:51.799Z,101058.84
2022-10-05T06:33:37.743Z,101064.91
2022-10-05T06:36:17.612Z,101075.34
2022-10-05T06:39:16.950Z,101061.44
2022-10-05T06:42:01.378Z,101066.64
2022-10-05T06:45:00.023Z,101056.22
2022-10-05T06:47:56.116Z,101077.09
2022-10-05T06:50:42.609Z,101077.05
2022-10-05T06:53:40.653Z,101083.99
2022-10-05T06:56:17.358Z,101088.37
2022-10-05T06:59:01.763Z,101090.11
2022-10-05T07:01:41.240Z,101091.84
2022-10-05T07:04:46.047Z,101081.37
2022-10-05T07:07:23.339Z,101091.80
2022-10-05T07:10:06.057Z,101087.41
2022-10-05T07:12:49.756Z,101076.07
2022-10-05T07:15:31.326Z,101069.10
2022-10-05T07:18:14.398Z,101077.78
2022-10-05T07:20:53.231Z,101069.91
2022-10-05T07:23:41.748Z,101070.77
2022-10-05T07:26:18.856Z,101068.10
2022-10-05T07:28:54.424Z,101071.50
2022-10-05T07:31:34.962Z,101078.39
2022-10-05T07:34:09.291Z,101063.38
2022-10-05T07:37:04.090Z,101068.39
2022-10-05T07:39:58.514Z,101061.28
2022-10-05T07:42:44.582Z,101055.05
2022-10-05T07:45:25.301Z,101060.09
2022-10-05T07:47:57.213Z,101058.26
2022-10-05T07:50:34.298Z,101058.17
2022-10-05T07:53:11.719Z,101057.17
2022-10-05T07:55:47.338Z,101044.88
2022-10-05T07:58:23.493Z,101049.11
2022-10-05T08:01:04.207Z,101050.78
2022-10-05T08:03:47.289Z,101045.34
2022-10-05T08:06:32.259Z,101049.53
2022-10-05T08:09:12.447Z,101044.90
2022-10-05T08:11:51.955Z,101051.61
2022-10-05T08:14:28.538Z,101049.56
2022-10-05T08:17:00.727Z,101036.91
2022-10-05T08:19:40.375Z,101034.78
2022-10-05T08:22:18.028Z,101025.70
2022-10-05T08:24:57.002Z,101030.70
2022-10-05T08:27:28.750Z,101027.93
2022-10-05T08:30:04.342Z,101023.47
2022-10-05T08:32:38.721Z,101024.27
2022-10-05T08:35:15.326Z,101018.16
2022-10-05T08:37:46.106Z,101017.21
2022-10-05T08:40:46.064Z,101020.58
2022-10-05T08:43:37.164Z,101019.48
2022-10-05T08:46:38.095Z,101021.05
2022-10-05T08:49:57.635Z,101021.72
2022-10-05T08:52:29.172Z,101032.92
2022-10-05T08:55:29.883Z,101022.17
2022-10-05T08:58:33.996Z,101016.80
2022-10-05T09:01:11.579Z,101025.31
2022-10-05T09:04:21.807Z,101018.02
2022-10-05T09:07:27.512Z,101008.41
2022-10-05T09:10:32.858Z,101002.68
2022-10-05T09:13:26.198Z,101002.03
2022-10-05T09:16:24.769Z,100993.22
2022-10-05T09:19:15.491Z,100994.07
2022-10-05T09:21:51.332Z,100983.59
2022-10-05T09:24:39.523Z,100984.66
2022-10-05T09:27:13.988Z,100981.17
2022-10-05T09:30:19.235Z,100975.70
2022-10-05T09:33:13.541Z,100972.25
2022-10-05T09:35:58.097Z,100970.77
2022-10-05T09:38:38.001Z,100974.33
2022-10-05T09:41:40.114Z,100976.17
2022-10-05T09:44:47.509Z,100982.22
2022-10-05T09:47:51.209Z,100977.91
2022-10-05T09:50:55.156Z,100985.53
2022-10-05T09:53:44.301Z,100985.89
2022-10-05T09:59:36.412Z,100987.45
2022-10-05T10:02:17.935Z,100986.28
2022-10-05T10:05:06.617Z,100979.70
2022-10-05T10:07:53.971Z,100987.38
2022-10-05T10:10:48.531Z,100986.31
2022-10-05T10:13:42.264Z,100999.47
2022-10-05T10:16:18.619Z,101004.77
2022-10-05T10:19:06.845Z,100994.14
2022-10-05T10:22:00.522Z,100992.63
2022-10-05T10:25:01.500Z,101004.53
2022-10-05T10:27:57.292Z,101007.66
2022-10-05T10:30:52.760Z,101000.33
2022-10-05T10:33:46.346Z,101001.13
2022-10-05T10:36:21.545Z,100993.24
2022-10-05T10:39:00.328Z,100989.75
2022-10-05T10:41:59.362Z,100977.05
2022-10-05T10:45:01.519Z,100972.90
2022-10-05T10:47:40.440Z,100963.31
2022-10-05T10:51:05.114Z,100959.91
2022-10-05T10:54:11.726Z,100939.35
2022-10-05T10:57:03.490Z,100940.81
2022-10-05T11:00:02.966Z,100935.47
2022-10-05T11:02:54.693Z,100927.73
2022-10-05T11:05:46.434Z,100944.26
2022-10-05T11:08:56.755Z,100940.96
2022-10-05T11:12:10.020Z,100926.70
2022-10-05T11:14:54.142Z,100924.59
2022-10-05T11:17:56.244Z,100925.55
2022-10-05T11:21:08.983Z,100932.30
2022-10-05T11:24:15.366Z,100935.56
2022-10-05T11:27:02.684Z,100932.80
2022-10-05T11:30:03.191Z,100933.26
2022-10-05T11:32:58.267Z,100929.69
2022-10-05T11:36:10.606Z,100917.91
2022-10-05T11:39:01.653Z,100923.41
2022-10-05T11:41:53.463Z,100913.48
2022-10-05T11:44:48.020Z,100925.36
2022-10-05T11:47:23.776Z,100919.72
2022-10-05T11:50:06.013Z,100913.92
2022-10-05T11:52:44.401Z,100910.84
2022-10-05T11:55:27.681Z,100918.95
2022-10-05T11:58:01.389Z,100929.05
2022-10-05T12:00:39.952Z,100923.98
2022-10-05T12:03:25.485Z,100928.63
2022-10-05T12:06:08.695Z,100927.15
2022-10-05T12:08:47.890Z,100922.88
2022-10-05T12:11:33.781Z,100928.30
2022-10-05T12:14:08.946Z,100918.83
2022-10-05T12:16:47.237Z,100921.51
2022-10-05T12:19:29.805Z,100926.05
2022-10-05T12:22:03.698Z,100919.03
2022-10-05T12:24:54.571Z,100919.03
2022-10-05T12:27:27.421Z,100914.84
2022-10-05T12:30:06.204Z,100916.70
2022-10-05T12:32:41.309Z,100914.30
2022-10-05T12:35:30.017Z,100916.00
2022-10-05T12:38:16.729Z,100916.06
2022-10-05T12:40:51.066Z,100912.51
2022-10-05T12:43:31.270Z,100916.81
2022-10-05T12:46:09.351Z,100912.41
2022-10-05T12:49:22.128Z,100913.36
2022-10-05T12:51:56.350Z,100913.42
2022-10-05T12:54:38.748Z,100914.98
2022-10-05T12:57:19.874Z,100921.78
2022-10-05T13:00:02.078Z,100910.38
2022-10-05T13:02:40.794Z,100916.39
2022-10-05T13:05:23.068Z,100920.77
2022-10-05T13:08:17.836Z,100913.75
2022-10-05T13:10:52.681Z,100904.92
2022-10-05T13:13:35.758Z,100904.84
2022-10-05T13:16:17.119Z,100904.20
2022-10-05T13:19:02.134Z,100908.85
2022-10-05T13:21:40.840Z,100913.25
2022-10-05T13:24:21.903Z,100910.68
2022-10-05T13:26:58.227Z,100905.30
2022-10-05T13:29:33.033Z,100906.21
2022-10-05T13:32:12.406Z,100905.33
2022-10-05T13:34:48.615Z,100902.80
2022-10-05T13:37:29.071Z,100896.84
2022-10-05T13:40:15.675Z,100899.58
2022-10-05T13:42:52.041Z,100896.09
2022-10-05T13:45:24.620Z,100902.28
2022-10-05T13:48:16.246Z,100903.27
2022-10-05T13:50:50.561Z,100905.09
2022-10-05T13:53:28.225Z,100912.30
2022-10-05T13:56:00.969Z,100912.70
2022-10-05T13:58:39.251Z,100918.14
2022-10-05T14:01:15.731Z,100906.87
2022-10-05T14:04:05.586Z,100907.03
2022-10-05T14:06:37.119Z,100895.88
2022-10-05T14:09:13.532Z,100891.61
2022-10-05T14:12:05.762Z,100886.66
2022-10-05T14:14:45.099Z,100874.63
2022-10-05T14:17:17.565Z,100879.25
2022-10-05T14:19:54.077Z,100873.28
2022-10-05T14:22:24.472Z,100883.05
2022-10-05T14:25:02.979Z,100878.72
2022-10-05T14:27:35.983Z,100874.37
2022-10-05T14:30:22.995Z,100871.86
2022-10-05T14:32:55.866Z,100869.35
2022-10-05T14:35:28.409Z,100872.92
2022-10-05T14:38:00.952Z,100873.95
2022-10-05T14:40:32.448Z,100879.38
2022-10-05T14:43:19.908Z,100876.92
2022-10-05T14:46:00.583Z,100878.97
2022-10-05T14:48:43.611Z,100874.81
2022-10-05T14:51:24.367Z,100876.77
2022-10-05T14:54:02.519Z,100868.17
2022-10-05T14:56:49.617Z,100869.24
2022-10-05T14:59:39.530Z,100868.48
2022-10-05T15:02:28.355Z,100880.00
2022-10-05T15:05:07.400Z,100880.14
2022-10-05T15:07:40.887Z,100874.11
2022-10-05T15:10:29.442Z,100869.89
2022-10-05T15:13:10.701Z,100865.74
2022-10-05T15:15:49.426Z,100855.41
2022-10-05T15:18:39.721Z,100856.45
2022-10-05T15:21:31.447Z,100854.90
2022-10-05T15:24:05.377Z,100854.19
2022-10-05T15:26:42.644Z,100848.23
2022-10-05T15:29:25.491Z,100850.17
2022-10-05T15:32:02.651Z,100848.56
2022-10-05T15:34:37.310Z,100849.59
2022-10-05T15:37:16.487Z,100859.34
2022-10-05T15:39:52.744Z,100846.27
2022-10-05T15:42:29.851Z,100852.61
2022-10-05T15:45:06.542Z,100836.97
2022-10-05T15:47:46.493Z,100840.63
2022-10-05T15:50:22.884Z,100839.92
2022-10-05T15:52:56.488Z,100840.92
2022-10-05T15:55:35.943Z,100848.03
2022-10-05T15:58:38.361Z,100851.69
2022-10-05T16:01:12.124Z,100857.91
2022-10-05T16:03:45.773Z,100851.03
2022-10-05T16:06:49.281Z,100845.06
2022-10-05T16:09:35.622Z,100853.06
2022-10-05T16:12:25.867Z,100851.41
2022-10-05T16:15:15.760Z,100842.78
2022-10-05T16:18:02.162Z,100845.53
2022-10-05T16:20:41.340Z,100835.08
2022-10-05T16:23:17.146Z,100829.91
2022-10-05T16:26:00.830Z,100833.50
2022-10-05T16:28:39.292Z,100821.30
2022-10-05T16:31:18.119Z,100815.28
2022-10-05T16:34:00.603Z,100819.75
2022-10-05T16:36:43.975Z,100816.29
2022-10-05T16:39:22.095Z,100814.61
2022-10-05T16:41:59.947Z,100824.27
2022-10-05T16:44:41.772Z,100813.77
2022-10-05T16:47:36.295Z,100810.34
2022-10-05T16:50:38.814Z,100819.14
2022-10-05T16:53:17.655Z,100817.45
2022-10-05T16:55:49.591Z,100815.72
2022-10-05T16:58:25.274Z,100809.63
2022-10-05T17:01:10.858Z,100815.78
2022-10-05T17:03:53.394Z,100814.99
2022-10-05T17:06:53.524Z,100815.04
2022-10-05T17:09:49.256Z,100805.49
2022-10-05T17:12:31.858Z,100814.27
2022-10-05T17:15:14.067Z,100815.20
2022-10-05T17:18:01.805Z,100810.84
2022-10-05T17:20:44.042Z,100810.89
2022-10-05T17:23:29.778Z,100811.79
2022-10-05T17:26:10.305Z,100812.69
2022-10-05T17:28:41.646Z,100817.98
2022-10-05T17:31:16.994Z,100817.99
2022-10-05T17:34:26.663Z,100819.78
2022-10-05T17:37:15.886Z,100817.25
2022-10-05T17:39:50.872Z,100813.80
2022-10-05T17:42:48.671Z,100800.72
2022-10-05T17:46:05.295Z,100802.55
2022-10-05T17:48:53.689Z,100804.39
2022-10-05T17:52:19.239Z,100806.22
2022-10-05T17:55:27.822Z,100808.09
2022-10-05T17:57:59.251Z,100802.06
2022-10-05T18:00:40.157Z,100803.85
2022-10-05T18:03:35.710Z,100804.79
2022-10-05T18:06:36.847Z,100794.39
2022-10-05T18:09:49.462Z,100800.58
2022-10-05T18:12:44.899Z,100794.58
2022-10-05T18:15:48.853Z,100799.78
2022-10-05T18:18:57.076Z,100794.59
2022-10-05T18:21:37.261Z,100799.92
2022-10-05T18:24:44.727Z,100803.44
2022-10-05T18:27:31.610Z,100802.55
2022-10-05T18:30:15.004Z,100799.97
2022-10-05T18:33:33.294Z,100793.00
2022-10-05T18:36:11.984Z,100800.91
2022-10-05T18:38:52.815Z,100802.65
2022-10-05T18:41:34.313Z,100800.06
2022-10-05T18:44:19.082Z,100800.95
2022-10-05T18:46:58.421Z,100797.48
2022-10-05T18:49:42.695Z,100794.86
2022-10-05T18:52:19.056Z,100797.48
2022-10-05T18:54:57.269Z,100801.00
2022-10-05T18:57:50.322Z,100802.73
2022-10-05T19:00:22.886Z,100801.89
2022-10-05T19:03:00.468Z,100802.78
2022-10-05T19:05:47.974Z,100793.14
2022-10-05T19:18:28.357Z,100788.73
2022-10-05T19:21:10.642Z,100790.51
2022-10-05T19:23:56.002Z,100789.62
2022-10-05T19:26:49.397Z,100793.09
2022-10-05T19:29:35.779Z,100791.31
2022-10-05T19:32:18.121Z,100789.63
2022-10-05T19:35:02.688Z,100788.73
2022-10-05T19:37:40.226Z,100780.03
2022-10-05T19:40:33.929Z,100786.16
2022-10-05T19:43:23.827Z,100785.31
2022-10-05T19:46:11.094Z,100780.97
2022-10-05T19:48:44.033Z,100793.20
2022-10-05T19:51:17.484Z,100794.09
2022-10-05T19:53:49.486Z,100800.27
2022-10-05T19:56:20.593Z,100802.08
2022-10-05T19:58:51.353Z,100801.28
2022-10-05T20:01:30.084Z,100801.33
2022-10-05T20:04:10.058Z,100799.64
2022-10-05T20:06:41.788Z,100806.66
2022-10-05T20:09:21.307Z,100800.61
2022-10-05T20:12:03.649Z,100805.02
2022-10-05T20:14:59.163Z,100808.61
2022-10-05T20:17:49.435Z,100801.67
2022-10-05T20:20:38.756Z,100812.20
2022-10-05T20:23:25.918Z,100812.28
2022-10-05T20:26:14.422Z,100812.36
2022-10-05T20:28:43.931Z,100822.04
2022-10-05T20:31:13.945Z,100820.34
2022-10-05T20:33:42.595Z,100816.92
2022-10-05T20:36:10.975Z,100816.11
2022-10-05T20:38:41.298Z,100814.42
2022-10-05T20:41:09.802Z,100818.88
2022-10-05T20:43:39.554Z,100816.30
2022-10-05T20:46:08.026Z,100812.02
2022-10-05T20:48:46.075Z,100814.68
2022-10-05T20:51:17.402Z,100811.25
2022-10-05T20:53:48.664Z,100816.52
2022-10-05T20:56:19.304Z,100824.41
2022-10-05T20:58:47.818Z,100825.33
2022-10-05T21:01:17.803Z,100820.17
2022-10-05T21:03:46.980Z,100830.67
2022-10-05T21:06:17.441Z,100833.33
2022-10-05T21:08:46.210Z,100835.12
2022-10-05T21:11:14.886Z,100828.16
2022-10-05T21:13:44.668Z,100834.31
2022-10-05T21:16:16.148Z,100836.11
2022-10-05T21:18:46.710Z,100838.76
2022-10-05T21:21:16.701Z,100838.76
2022-10-05T21:23:45.137Z,100838.76
2022-10-05T21:26:15.061Z,100844.88
2022-10-05T21:28:43.661Z,100838.79
2022-10-05T21:31:12.280Z,100837.97
2022-10-05T21:33:40.697Z,100839.73
2022-10-05T21:36:09.493Z,100839.73
2022-10-05T21:38:38.540Z,100849.35
2022-10-05T21:41:07.551Z,100852.00
2022-10-05T21:43:39.092Z,100852.88
2022-10-05T21:46:08.382Z,100852.06
2022-10-05T21:48:39.073Z,100846.86
2022-10-05T21:51:10.061Z,100850.39
2022-10-05T21:53:42.329Z,100846.06
2022-10-05T21:56:16.359Z,100853.94
2022-10-05T21:58:46.784Z,100853.11
2022-10-05T22:01:20.158Z,100854.94
2022-10-05T22:03:51.225Z,100855.84
2022-10-05T22:06:26.267Z,100854.13
2022-10-05T22:08:54.983Z,100852.45
2022-10-05T22:11:25.408Z,100853.36
2022-10-05T22:14:01.809Z,100855.17
2022-10-05T22:16:32.797Z,100852.58
2022-10-05T22:19:10.706Z,100856.98
2022-10-05T22:21:41.090Z,100845.72
2022-10-05T22:24:10.929Z,100844.02
2022-10-05T22:26:40.045Z,100841.39
2022-10-05T22:29:09.391Z,100852.73
2022-10-05T22:31:38.726Z,100849.29
2022-10-05T22:34:07.215Z,100848.41
2022-10-05T22:36:36.889Z,100846.70
2022-10-05T22:39:05.277Z,100845.84
2022-10-05T22:41:34.006Z,100852.82
2022-10-05T22:44:03.758Z,100843.27
2022-10-05T22:46:32.184Z,100848.52
2022-10-05T22:49:06.100Z,100842.44
2022-10-05T22:51:34.671Z,100850.28
2022-10-05T22:54:04.358Z,100850.27
2022-10-05T22:56:32.762Z,100859.00
2022-10-05T22:59:02.844Z,100856.38
2022-10-05T23:01:31.336Z,100859.90
2022-10-05T23:04:00.264Z,100860.78
2022-10-05T23:06:30.181Z,100854.66
2022-10-05T23:08:58.638Z,100866.88
2022-10-05T23:11:28.223Z,100865.14
2022-10-05T23:13:58.182Z,100867.75
2022-10-05T23:16:32.839Z,100865.14
2022-10-05T23:19:02.989Z,100869.51
2022-10-05T23:21:31.529Z,100867.77
2022-10-05T23:23:59.966Z,100873.02
2022-10-05T23:26:28.467Z,100880.87
2022-10-05T23:28:57.331Z,100880.02
2022-10-05T23:31:29.340Z,100884.38
2022-10-05T23:33:57.985Z,100875.70
2022-10-05T23:36:31.827Z,100874.84
2022-10-05T23:39:00.337Z,100880.13
2022-10-05T23:41:29.006Z,100875.77
2022-10-05T23:43:57.483Z,100872.32
2022-10-05T23:46:26.016Z,100870.58
2022-10-05T23:48:54.449Z,100877.55
2022-10-05T23:51:23.043Z,100879.32
2022-10-05T23:53:51.473Z,100880.22
2022-10-05T23:56:19.944Z,100876.75
2022-10-05T23:58:48.662Z,100871.53
